Time;durP1;ratioP1;P1;durP2;ratioP2;P2;SDS_P1;SDS_P2;PMS_P1;PMS_P2;Temp;Humidity;BMP_temperature;BMP_pressure;BME280_temperature;BME280_humidity;BME280_pressure;Samples;Min_cycle;Max_cycle;Signal;HPM_P1;HPM_P2
2022/06/20 00:01:46;;;;;;;8.05;4.10;;;24.10;93.30;;;;;;5004717;28;20221;-75
2022/06/20 00:04:37;;;;;;;7.95;3.60;;;24.10;93.60;;;;;;5047051;28;20217;-76
2022/06/20 00:07:25;;;;;;;13.32;4.50;;;23.90;94.10;;;;;;5045108;28;20731;-76
2022/06/20 00:10:16;;;;;;;4.85;3.97;;;23.90;94.20;;;;;;5039328;28;20218;-76
2022/06/20 00:13:05;;;;;;;4.88;3.90;;;23.90;95.10;;;;;;5032679;28;20217;-75
2022/06/20 00:15:56;;;;;;;11.02;4.30;;;23.70;97.10;;;;;;5035629;28;20263;-75
2022/06/20 00:18:46;;;;;;;10.52;3.80;;;23.70;97.20;;;;;;5048410;28;20208;-75
2022/06/20 00:21:37;;;;;;;6.00;3.95;;;23.70;98.10;;;;;;5037693;28;20236;-75
2022/06/20 00:24:26;;;;;;;8.30;4.10;;;23.60;97.50;;;;;;5035067;28;20725;-75
2022/06/20 00:27:15;;;;;;;8.60;4.25;;;23.60;97.90;;;;;;5045830;28;20220;-75
2022/06/20 00:30:04;;;;;;;5.60;4.07;;;23.60;97.10;;;;;;5044659;28;20307;-75
2022/06/20 00:32:53;;;;;;;9.30;4.53;;;23.50;97.50;;;;;;5039180;28;20229;-75
2022/06/20 00:35:42;;;;;;;8.27;4.07;;;23.50;97.50;;;;;;5039274;28;21221;-74
2022/06/20 00:38:35;;;;;;;6.97;4.25;;;23.50;97.40;;;;;;5036161;28;20221;-75
2022/06/20 00:41:26;;;;;;;9.13;4.32;;;23.40;97.70;;;;;;5052042;28;20357;-76
2022/06/20 00:44:20;;;;;;;7.18;4.28;;;23.40;97.80;;;;;;5039128;28;20229;-76
2022/06/20 00:47:12;;;;;;;9.15;4.57;;;23.30;98.60;;;;;;5035099;28;20236;-77
2022/06/20 00:50:06;;;;;;;6.60;4.00;;;23.20;98.80;;;;;;5033465;28;20710;-76
2022/06/20 00:52:58;;;;;;;9.45;3.67;;;23.30;99.90;;;;;;5034862;28;20229;-77
2022/06/20 00:55:52;;;;;;;5.82;3.90;;;23.30;99.90;;;;;;5032139;28;20228;-82
2022/06/20 00:58:47;;;;;;;10.98;4.40;;;23.20;99.90;;;;;;5031274;28;20232;-76
2022/06/20 01:01:40;;;;;;;7.60;4.30;;;23.20;99.90;;;;;;5027472;28;20228;-76
2022/06/20 01:04:34;;;;;;;7.03;4.50;;;23.20;99.90;;;;;;5029285;28;20243;-76
2022/06/20 01:07:28;;;;;;;5.63;4.03;;;23.10;99.90;;;;;;5031432;28;21322;-76
2022/06/20 01:10:18;;;;;;;9.98;4.50;;;23.10;99.90;;;;;;5033946;28;20220;-76
2022/06/20 01:13:14;;;;;;;4.68;4.18;;;23.10;99.90;;;;;;5029655;28;20596;-76
2022/06/20 01:16:16;;;;;;;7.32;4.40;;;23.20;99.90;;;;;;5039097;28;20225;-77
2022/06/20 01:19:10;;;;;;;5.38;4.13;;;23.10;99.90;;;;;;5031151;28;20278;-76
2022/06/20 01:22:03;;;;;;;11.05;4.00;;;23.10;99.90;;;;;;5031863;28;20217;-76
2022/06/20 01:25:00;;;;;;;7.63;3.97;;;23.10;99.90;;;;;;5037855;28;20236;-76
2022/06/20 01:27:52;;;;;;;8.50;3.92;;;22.90;99.90;;;;;;5030202;28;20244;-76
2022/06/20 01:30:43;;;;;;;6.55;4.10;;;22.90;99.90;;;;;;5045184;28;20217;-76
2022/06/20 01:33:32;;;;;;;7.82;4.25;;;22.80;99.90;;;;;;5030032;28;20266;-76
2022/06/20 01:39:31;;;;;;;7.43;4.32;;;22.80;99.90;;;;;;5035941;28;20232;-76
2022/06/20 01:42:21;;;;;;;8.02;4.75;;;22.70;99.90;;;;;;5028166;28;20228;-76
2022/06/20 01:48:19;;;;;;;9.73;4.13;;;22.70;99.90;;;;;;5034078;28;20217;-76
2022/06/20 01:51:14;;;;;;;7.60;3.97;;;22.60;99.90;;;;;;5037086;28;20225;-76
2022/06/20 01:54:03;;;;;;;8.90;4.63;;;22.60;99.90;;;;;;5031087;28;20225;-75
2022/06/20 01:56:53;;;;;;;10.32;4.25;;;22.60;99.90;;;;;;5037037;28;20224;-76
2022/06/20 01:59:48;;;;;;;6.68;4.15;;;22.60;99.90;;;;;;5045876;28;20221;-76
2022/06/20 02:02:43;;;;;;;10.35;5.00;;;22.70;99.90;;;;;;5032277;28;20809;-76
2022/06/20 02:05:33;;;;;;;6.18;4.55;;;22.70;99.90;;;;;;5031563;28;20907;-76
2022/06/20 02:08:23;;;;;;;9.98;4.60;;;22.60;99.90;;;;;;5031349;28;20236;-76
2022/06/20 02:11:18;;;;;;;9.80;4.25;;;22.60;99.90;;;;;;5029769;28;20356;-76
2022/06/20 02:14:10;;;;;;;9.73;4.57;;;22.60;99.90;;;;;;5043409;28;20225;-75
2022/06/20 02:17:05;;;;;;;9.85;4.85;;;22.60;99.90;;;;;;5032617;28;20225;-76
2022/06/20 02:19:57;;;;;;;8.32;4.63;;;22.60;99.90;;;;;;5029788;28;20347;-76
2022/06/20 02:22:47;;;;;;;7.78;4.30;;;22.60;99.90;;;;;;5032209;28;20216;-76
2022/06/20 02:25:36;;;;;;;7.97;4.57;;;22.60;99.90;;;;;;5029326;28;20243;-75
2022/06/20 02:28:30;;;;;;;8.48;4.78;;;22.50;99.90;;;;;;5031762;28;20225;-76
2022/06/20 02:31:19;;;;;;;9.13;4.82;;;22.50;99.90;;;;;;5030796;28;20232;-74
2022/06/20 02:34:08;;;;;;;11.07;4.75;;;22.50;99.90;;;;;;5034101;28;20286;-75
2022/06/20 02:37:03;;;;;;;6.88;4.85;;;22.50;99.90;;;;;;5055868;28;20236;-76
2022/06/20 02:39:55;;;;;;;9.90;4.80;;;22.50;99.90;;;;;;5040659;28;21146;-75
2022/06/20 02:42:49;;;;;;;10.45;4.97;;;22.50;99.90;;;;;;5043433;28;20276;-75
2022/06/20 02:45:40;;;;;;;11.48;4.93;;;22.40;99.90;;;;;;5026939;28;20222;-75
2022/06/20 02:48:33;;;;;;;10.48;4.70;;;22.50;99.90;;;;;;5031476;28;20348;-75
2022/06/20 02:51:26;;;;;;;7.05;4.68;;;22.40;99.90;;;;;;5027720;28;20220;-76
2022/06/20 02:54:19;;;;;;;11.82;4.95;;;22.40;99.90;;;;;;5030673;28;20221;-76
2022/06/20 02:57:13;;;;;;;9.65;5.38;;;22.50;99.90;;;;;;5025932;28;20243;-76
2022/06/20 03:00:04;;;;;;;10.02;5.13;;;22.40;99.90;;;;;;5026572;28;20224;-77
2022/06/20 03:02:58;;;;;;;8.48;5.38;;;22.40;99.90;;;;;;5029310;28;20217;-75
2022/06/20 03:05:47;;;;;;;7.97;5.00;;;22.40;99.90;;;;;;5010154;28;20224;-76
2022/06/20 03:08:35;;;;;;;15.55;5.15;;;22.40;99.90;;;;;;5034770;28;20240;-76
2022/06/20 03:11:29;;;;;;;7.72;5.35;;;22.20;99.90;;;;;;5030539;28;20220;-76
2022/06/20 03:14:19;;;;;;;17.50;5.25;;;22.20;99.90;;;;;;5029883;28;20225;-74
2022/06/20 03:17:09;;;;;;;9.45;5.38;;;22.20;99.90;;;;;;5028238;28;20910;-75
2022/06/20 03:20:00;;;;;;;6.90;5.20;;;22.20;99.90;;;;;;5028552;28;20893;-76
2022/06/20 03:22:56;;;;;;;12.63;5.30;;;22.20;99.90;;;;;;5031118;28;20220;-75
2022/06/20 03:25:46;;;;;;;11.77;5.30;;;22.20;99.90;;;;;;5031978;28;20220;-77
2022/06/20 03:28:36;;;;;;;10.68;5.53;;;22.20;99.90;;;;;;5030452;28;20232;-75
2022/06/20 03:31:26;;;;;;;8.85;5.40;;;22.20;99.90;;;;;;5043367;28;20560;-76
2022/06/20 03:34:14;;;;;;;11.45;5.13;;;22.20;99.90;;;;;;5042755;28;20225;-76
2022/06/20 03:37:06;;;;;;;14.18;5.03;;;22.10;99.90;;;;;;5034850;28;20311;-77
2022/06/20 03:39:55;;;;;;;13.13;4.65;;;22.20;99.90;;;;;;5032150;28;20231;-78
2022/06/20 03:42:44;;;;;;;9.27;4.47;;;21.90;99.90;;;;;;5026182;28;20235;-77
2022/06/20 03:45:39;;;;;;;10.68;4.60;;;21.70;99.90;;;;;;5035090;28;20232;-76
2022/06/20 03:48:32;;;;;;;14.90;4.90;;;21.80;99.90;;;;;;5027470;28;20233;-75
2022/06/20 03:51:25;;;;;;;9.73;4.88;;;22.00;99.90;;;;;;5031270;28;20217;-76
2022/06/20 03:54:20;;;;;;;10.25;4.63;;;22.10;99.90;;;;;;5039088;28;20225;-75
2022/06/20 03:57:12;;;;;;;11.52;4.30;;;22.20;99.90;;;;;;5028093;28;20250;-76
2022/06/20 04:00:05;;;;;;;9.00;4.70;;;22.30;99.90;;;;;;5007504;28;20230;-76
2022/06/20 04:03:07;;;;;;;13.05;5.03;;;22.30;99.90;;;;;;5001325;28;20360;-76
2022/06/20 04:06:01;;;;;;;13.23;4.10;;;22.20;99.90;;;;;;5022252;28;20281;-75
2022/06/20 04:12:07;;;;;;;14.52;4.95;;;22.30;99.90;;;;;;5020199;28;20569;-76
2022/06/20 04:15:00;;;;;;;10.18;4.78;;;22.30;99.90;;;;;;5035779;28;20233;-75
2022/06/20 04:21:18;;;;;;;15.32;4.88;;;22.30;99.90;;;;;;5030233;28;20217;-76
2022/06/20 04:24:14;;;;;;;18.40;4.65;;;22.40;99.90;;;;;;5047192;28;20216;-75
2022/06/20 04:27:07;;;;;;;11.43;5.20;;;22.40;99.90;;;;;;5038119;28;20222;-75
2022/06/20 04:30:01;;;;;;;8.63;4.25;;;22.40;99.90;;;;;;5036397;28;20221;-77
2022/06/20 04:32:55;;;;;;;11.57;5.05;;;22.50;99.90;;;;;;5032419;28;20267;-75
2022/06/20 04:35:52;;;;;;;17.38;4.88;;;22.50;99.90;;;;;;5049999;28;20227;-75
2022/06/20 04:38:48;;;;;;;13.80;4.72;;;22.60;99.90;;;;;;5036543;28;20789;-76
2022/06/20 04:41:41;;;;;;;12.57;4.63;;;22.70;99.90;;;;;;5033223;28;20220;-76
2022/06/20 04:44:37;;;;;;;12.48;4.90;;;23.00;99.90;;;;;;5034414;28;20228;-78
2022/06/20 04:47:41;;;;;;;11.02;4.55;;;23.20;99.90;;;;;;5031469;28;20221;-76
2022/06/20 04:50:33;;;;;;;11.95;4.53;;;23.30;99.90;;;;;;5046963;28;20221;-77
2022/06/20 04:53:25;;;;;;;11.05;4.57;;;23.40;99.90;;;;;;5035493;28;20221;-76
2022/06/20 04:56:23;;;;;;;11.82;5.18;;;23.40;99.90;;;;;;5044569;28;20222;-76
2022/06/20 04:59:17;;;;;;;16.50;4.90;;;23.10;99.90;;;;;;5044582;28;21981;-75
2022/06/20 05:02:11;;;;;;;10.35;4.82;;;23.10;99.90;;;;;;5034144;28;20339;-76
2022/06/20 05:05:04;;;;;;;46.83;6.53;;;23.00;99.90;;;;;;5034510;28;20228;-75
2022/06/20 05:07:54;;;;;;;17.50;5.25;;;22.80;99.90;;;;;;5030685;28;20221;-76
2022/06/20 05:10:47;;;;;;;16.85;5.05;;;22.50;99.90;;;;;;5033167;28;20221;-75
2022/06/20 05:13:42;;;;;;;9.45;4.38;;;22.30;99.90;;;;;;5035602;28;20225;-74
2022/06/20 05:16:34;;;;;;;15.68;4.88;;;22.40;99.90;;;;;;5034659;28;20236;-75
2022/06/20 05:19:27;;;;;;;12.05;4.72;;;22.50;99.90;;;;;;5034261;28;20271;-75
2022/06/20 05:22:19;;;;;;;15.30;4.55;;;22.80;99.90;;;;;;5036932;28;20229;-76
2022/06/20 05:25:21;;;;;;;13.23;4.25;;;23.00;99.90;;;;;;5038563;28;20623;-76
2022/06/20 05:28:13;;;;;;;8.93;4.43;;;23.10;99.90;;;;;;5027453;28;20225;-76
2022/06/20 05:31:04;;;;;;;10.50;4.75;;;23.20;99.90;;;;;;5032842;28;20595;-76
2022/06/20 05:33:57;;;;;;;12.55;4.80;;;23.20;99.90;;;;;;5041851;28;20865;-76
2022/06/20 05:36:52;;;;;;;10.90;5.00;;;23.40;99.90;;;;;;5033460;28;20225;-76
2022/06/20 05:39:46;;;;;;;11.93;4.68;;;23.20;99.90;;;;;;5038434;28;20683;-77
2022/06/20 05:42:35;;;;;;;11.73;5.35;;;23.30;99.90;;;;;;5032031;28;20617;-76
2022/06/20 05:45:26;;;;;;;13.45;4.60;;;23.20;99.90;;;;;;5033351;28;22054;-76
2022/06/20 05:48:16;;;;;;;9.35;5.03;;;23.20;99.90;;;;;;5030906;28;20730;-75
2022/06/20 05:51:07;;;;;;;12.20;5.18;;;23.10;99.90;;;;;;5036668;28;20220;-76
2022/06/20 05:54:00;;;;;;;11.05;4.15;;;23.00;99.90;;;;;;5032338;28;20224;-75
2022/06/20 05:56:51;;;;;;;14.52;4.05;;;23.00;99.90;;;;;;5039571;28;20225;-75
2022/06/20 05:59:43;;;;;;;9.13;4.00;;;23.00;99.90;;;;;;5014394;28;20530;-75
2022/06/20 06:02:40;;;;;;;9.77;4.82;;;23.10;99.90;;;;;;5001577;28;21066;-79
2022/06/20 06:05:34;;;;;;;14.35;4.97;;;23.30;99.90;;;;;;5014620;28;20226;-75
2022/06/20 06:08:27;;;;;;;9.68;4.45;;;23.20;99.90;;;;;;5013228;28;20213;-76
2022/06/20 06:11:42;;;;;;;8.32;4.65;;;23.20;99.90;;;;;;5021069;28;20228;-77
2022/06/20 06:14:37;;;;;;;10.70;4.38;;;23.30;99.90;;;;;;5029604;28;20214;-76
2022/06/20 06:17:31;;;;;;;10.52;3.88;;;23.20;99.90;;;;;;5012111;28;20229;-77
2022/06/20 06:20:33;;;;;;;14.52;4.20;;;23.20;99.90;;;;;;5017364;28;20230;-75
2022/06/20 06:23:21;;;;;;;10.32;4.28;;;22.90;99.90;;;;;;5009173;28;20739;-75
2022/06/20 06:26:15;;;;;;;17.85;4.72;;;22.20;99.90;;;;;;5020311;28;20214;-75
2022/06/20 06:29:07;;;;;;;13.15;4.60;;;22.40;99.90;;;;;;5015810;28;20213;-76
2022/06/20 06:32:03;;;;;;;13.80;4.82;;;22.40;99.90;;;;;;5020184;28;20288;-75
2022/06/20 06:34:57;;;;;;;8.27;4.60;;;22.30;99.90;;;;;;5022343;28;20313;-75
2022/06/20 06:37:53;;;;;;;12.40;4.38;;;22.40;99.90;;;;;;5009251;28;20288;-75
2022/06/20 06:40:47;;;;;;;12.45;4.57;;;22.30;99.90;;;;;;5011413;28;20230;-75
2022/06/20 06:43:39;;;;;;;15.95;4.97;;;22.30;99.90;;;;;;5017044;28;20233;-75
2022/06/20 06:46:34;;;;;;;9.27;4.68;;;22.20;99.90;;;;;;4994161;28;20225;-77
2022/06/20 06:49:32;;;;;;;12.02;4.47;;;22.40;99.90;;;;;;5007176;28;20222;-76
2022/06/20 06:52:28;;;;;;;19.60;4.82;;;22.80;99.90;;;;;;5013497;28;20233;-77
2022/06/20 06:55:32;;;;;;;14.15;5.13;;;22.90;99.90;;;;;;5011951;28;20549;-76
2022/06/20 06:58:25;;;;;;;10.23;4.43;;;22.90;99.90;;;;;;5004560;28;20407;-76
2022/06/20 07:01:19;;;;;;;12.15;4.72;;;23.10;99.90;;;;;;5012594;28;20222;-75
2022/06/20 07:04:16;;;;;;;11.45;4.80;;;23.30;99.90;;;;;;5010296;28;20218;-77
2022/06/20 07:07:15;;;;;;;14.55;4.82;;;23.30;99.90;;;;;;5014800;28;20225;-76
2022/06/20 07:10:04;;;;;;;10.88;4.80;;;23.30;99.90;;;;;;5010441;28;20253;-76
2022/06/20 07:12:59;;;;;;;13.82;5.03;;;23.20;99.90;;;;;;5014318;28;20225;-76
2022/06/20 07:15:50;;;;;;;12.82;4.90;;;23.10;99.90;;;;;;5009993;28;20238;-76
2022/06/20 07:18:45;;;;;;;16.10;4.88;;;23.00;99.90;;;;;;5013973;28;20255;-77
2022/06/20 07:21:35;;;;;;;14.57;4.95;;;22.90;99.90;;;;;;4995369;28;20237;-75
2022/06/20 07:24:26;;;;;;;12.15;5.00;;;23.10;99.90;;;;;;5010880;28;20272;-77
2022/06/20 07:27:19;;;;;;;12.57;4.75;;;23.20;99.90;;;;;;5008962;28;20225;-75
2022/06/20 07:30:12;;;;;;;9.80;4.20;;;23.40;99.90;;;;;;5008310;28;20272;-76
2022/06/20 07:33:07;;;;;;;13.98;5.13;;;23.50;99.90;;;;;;5010863;28;20262;-76
2022/06/20 07:36:00;;;;;;;13.90;4.20;;;23.80;99.90;;;;;;4997544;28;20322;-76
2022/06/20 07:38:56;;;;;;;11.68;4.30;;;24.10;99.90;;;;;;5008576;28;20222;-76
2022/06/20 07:41:48;;;;;;;16.23;4.72;;;24.10;99.90;;;;;;5012509;28;20228;-77
2022/06/20 07:44:40;;;;;;;12.07;4.43;;;24.30;99.90;;;;;;5010850;28;20232;-78
2022/06/20 07:47:34;;;;;;;15.30;5.10;;;25.20;99.90;;;;;;5015569;28;20664;-77
2022/06/20 07:50:28;;;;;;;14.95;5.25;;;25.00;99.90;;;;;;5015162;28;20231;-76
2022/06/20 07:53:28;;;;;;;9.48;4.75;;;24.80;99.90;;;;;;5015477;28;20309;-77
2022/06/20 07:56:21;;;;;;;10.93;4.60;;;24.40;99.90;;;;;;4999039;28;20245;-76
2022/06/20 07:59:13;;;;;;;14.20;4.82;;;24.60;99.90;;;;;;5021169;28;20241;-76
2022/06/20 08:02:07;;;;;;;13.30;5.43;;;25.50;99.90;;;;;;5030818;28;20225;-76
2022/06/20 08:05:00;;;;;;;14.18;5.80;;;26.30;99.90;;;;;;5025192;28;20388;-75
2022/06/20 08:07:54;;;;;;;8.75;4.57;;;26.20;99.90;;;;;;5023580;28;20719;-75
2022/06/20 08:10:47;;;;;;;14.65;5.07;;;26.90;99.90;;;;;;5035479;28;20245;-76
2022/06/20 08:13:39;;;;;;;15.57;4.75;;;27.50;99.90;;;;;;5030511;28;20217;-74
2022/06/20 08:16:30;;;;;;;9.43;5.15;;;27.70;99.90;;;;;;5021231;28;20801;-75
2022/06/20 08:19:19;;;;;;;13.38;4.90;;;27.80;99.90;;;;;;5018586;28;22545;-77
2022/06/20 08:22:13;;;;;;;13.13;5.18;;;28.20;99.90;;;;;;5020203;28;20217;-74
2022/06/20 08:25:11;;;;;;;11.75;4.85;;;28.30;99.90;;;;;;5030265;28;20233;-75
2022/06/20 08:28:05;;;;;;;13.45;5.00;;;28.50;99.90;;;;;;5026946;28;20221;-76
2022/06/20 08:30:58;;;;;;;14.45;4.15;;;28.90;99.70;;;;;;5030540;28;20233;-76
2022/06/20 08:33:52;;;;;;;9.88;4.35;;;28.90;99.10;;;;;;5013402;28;20214;-74
2022/06/20 08:36:47;;;;;;;8.65;4.60;;;29.50;97.80;;;;;;5031167;28;20274;-76
2022/06/20 08:39:45;;;;;;;12.02;4.40;;;29.40;94.10;;;;;;5042127;28;20687;-75
2022/06/20 08:42:49;;;;;;;15.90;5.07;;;29.10;95.00;;;;;;5020583;28;20555;-76
2022/06/20 08:46:32;;;;;;;12.75;4.60;;;29.90;95.50;;;;;;5024974;28;20221;-75
2022/06/20 08:50:04;;;;;;;15.15;5.10;;;30.40;91.40;;;;;;4992756;28;20386;-77
2022/06/20 08:53:53;;;;;;;19.58;5.40;;;30.30;91.20;;;;;;5031868;28;20216;-76
2022/06/20 08:56:53;;;;;;;13.45;4.75;;;31.20;90.20;;;;;;5000666;28;20216;-76
2022/06/20 08:59:53;;;;;;;13.55;4.70;;;31.50;87.80;;;;;;5029891;28;20214;-77
2022/06/20 09:03:03;;;;;;;15.93;4.72;;;31.50;87.50;;;;;;5024523;28;20217;-75
2022/06/20 09:06:15;;;;;;;12.73;4.43;;;31.80;83.50;;;;;;5036456;28;20229;-76
2022/06/20 09:09:20;;;;;;;10.25;4.32;;;32.60;80.80;;;;;;5031155;28;20251;-80
2022/06/20 09:12:29;;;;;;;15.18;4.30;;;32.10;79.50;;;;;;5021980;28;20220;-75
2022/06/20 09:15:33;;;;;;;8.65;4.03;;;32.90;81.50;;;;;;5032196;28;20219;-76
2022/06/20 09:18:36;;;;;;;14.90;4.20;;;32.90;76.30;;;;;;5031379;28;20216;-76
2022/06/20 09:21:32;;;;;;;10.82;3.83;;;33.60;76.00;;;;;;5033495;28;20230;-77
2022/06/20 09:24:33;;;;;;;11.38;4.13;;;34.70;71.60;;;;;;5030428;28;20835;-76
2022/06/20 09:27:32;;;;;;;8.93;3.92;;;35.80;67.80;;;;;;5018989;28;20223;-76
2022/06/20 09:30:30;;;;;;;9.73;3.85;;;36.70;65.00;;;;;;5020683;28;20390;-76
2022/06/20 09:33:39;;;;;;;8.02;3.70;;;37.00;62.20;;;;;;5033151;28;20591;-76
2022/06/20 09:36:50;;;;;;;13.50;4.72;;;37.90;60.70;;;;;;5008147;28;20221;-75
2022/06/20 09:39:54;;;;;;;8.60;4.07;;;37.50;59.80;;;;;;5030701;28;20220;-75
2022/06/20 09:42:53;;;;;;;11.77;4.13;;;37.70;59.00;;;;;;5031476;28;20226;-76
2022/06/20 09:45:47;;;;;;;12.90;3.80;;;36.30;60.20;;;;;;5025997;28;21416;-76
2022/06/20 09:48:42;;;;;;;11.57;4.00;;;34.70;64.30;;;;;;5028961;28;20241;-76
2022/06/20 09:51:39;;;;;;;9.85;3.65;;;34.20;64.60;;;;;;5031291;28;20232;-76
2022/06/20 09:54:35;;;;;;;12.02;4.30;;;33.20;66.30;;;;;;5032397;28;20220;-75
2022/06/20 09:57:40;;;;;;;18.92;4.50;;;32.40;69.90;;;;;;5027315;28;21324;-74
2022/06/20 10:00:40;;;;;;;7.75;3.72;;;32.00;73.40;;;;;;5032875;28;20232;-73
2022/06/20 10:03:37;;;;;;;12.10;4.05;;;33.50;72.00;;;;;;5027911;28;20514;-74
2022/06/20 10:06:38;;;;;;;15.57;4.57;;;35.00;68.30;;;;;;5037022;28;20216;-74
2022/06/20 10:09:35;;;;;;;10.32;4.40;;;34.50;66.50;;;;;;5030749;28;20220;-74
2022/06/20 10:12:34;;;;;;;12.48;4.40;;;33.40;69.60;;;;;;5030249;28;20220;-74
2022/06/20 10:15:31;;;;;;;11.85;4.10;;;33.90;71.00;;;;;;5031230;28;20223;-74
2022/06/20 10:18:32;;;;;;;14.50;4.07;;;35.70;66.70;;;;;;5029966;28;20874;-75
2022/06/20 10:21:27;;;;;;;10.05;4.13;;;37.60;61.60;;;;;;5018446;28;20310;-74
2022/06/20 10:24:34;;;;;;;16.30;4.40;;;39.10;58.20;;;;;;5030950;28;20216;-76
2022/06/20 10:27:51;;;;;;;13.75;4.30;;;40.30;56.00;;;;;;5021126;28;20224;-74
2022/06/20 10:30:47;;;;;;;16.02;4.47;;;41.10;53.50;;;;;;5032308;28;20228;-75
2022/06/20 10:33:48;;;;;;;13.07;4.28;;;41.30;50.90;;;;;;5036089;28;20230;-76
2022/06/20 10:36:48;;;;;;;13.48;4.20;;;41.30;52.50;;;;;;5033428;28;20828;-76
2022/06/20 10:39:46;;;;;;;12.95;5.05;;;42.00;52.20;;;;;;5022970;28;20231;-75
2022/06/20 10:42:46;;;;;;;12.20;4.38;;;40.30;52.50;;;;;;5032848;28;20225;-75
2022/06/20 10:45:44;;;;;;;16.15;5.00;;;40.50;53.60;;;;;;5033055;28;20362;-76
2022/06/20 10:48:54;;;;;;;13.18;4.72;;;40.30;53.70;;;;;;5033545;28;20221;-74
2022/06/20 10:51:52;;;;;;;14.77;5.35;;;41.50;52.80;;;;;;5033474;28;20225;-76
2022/06/20 10:54:53;;;;;;;10.13;5.63;;;41.00;52.90;;;;;;5036679;28;20710;-72
2022/06/20 10:57:53;;;;;;;12.10;5.25;;;38.50;55.60;;;;;;5036325;28;20358;-75
2022/06/20 11:00:46;;;;;;;8.73;4.95;;;37.40;58.20;;;;;;5029197;28;20227;-74
2022/06/20 11:04:04;;;;;;;13.57;5.30;;;39.10;57.20;;;;;;5051849;28;20220;-74
2022/06/20 11:07:09;;;;;;;19.45;5.35;;;39.30;55.40;;;;;;5001817;28;20220;-76
2022/06/20 11:10:08;;;;;;;17.33;5.03;;;37.30;59.80;;;;;;5022499;28;20224;-74
2022/06/20 11:13:07;;;;;;;7.53;4.68;;;38.20;59.00;;;;;;5040328;28;20224;-74
2022/06/20 11:16:08;;;;;;;10.90;5.78;;;35.80;61.50;;;;;;5044680;28;20257;-74
2022/06/20 11:19:08;;;;;;;25.63;5.50;;;32.50;69.50;;;;;;5038335;28;20217;-73
2022/06/20 11:22:08;;;;;;;11.48;6.10;;;30.30;79.80;;;;;;5026143;28;20220;-73
2022/06/20 11:25:06;;;;;;;13.25;6.25;;;27.90;88.60;;;;;;5042881;28;20328;-73
2022/06/20 11:28:23;;;;;;;11.90;7.00;;;27.20;95.50;;;;;;5024434;28;20730;-73
2022/06/20 11:31:20;;;;;;;10.38;5.85;;;26.00;99.90;;;;;;5037657;28;20295;-74
2022/06/20 11:34:35;;;;;;;9.65;6.45;;;26.70;99.90;;;;;;5043252;28;20266;-73
2022/06/20 11:37:37;;;;;;;10.45;6.00;;;26.60;99.90;;;;;;5042731;28;20232;-73
2022/06/20 11:40:39;;;;;;;7.30;6.22;;;26.00;99.90;;;;;;5043762;28;20235;-73
2022/06/20 11:44:06;;;;;;;9.23;6.32;;;25.30;99.90;;;;;;5038989;28;20250;-72
2022/06/20 11:47:28;;;;;;;12.38;6.75;;;24.70;99.90;;;;;;5039594;28;20336;-72
2022/06/20 11:50:28;;;;;;;12.68;6.05;;;24.40;99.90;;;;;;5028624;28;21116;-72
2022/06/20 11:53:36;;;;;;;8.63;5.47;;;24.20;99.90;;;;;;5035189;28;20244;-73
2022/06/20 11:56:32;;;;;;;8.55;5.55;;;24.80;99.90;;;;;;5042345;28;20302;-73
2022/06/20 11:59:46;;;;;;;10.35;5.80;;;24.40;99.90;;;;;;5046665;28;20224;-74
2022/06/20 12:02:47;;;;;;;12.13;6.20;;;24.30;99.90;;;;;;5025957;28;20470;-73
2022/06/20 12:05:45;;;;;;;8.40;4.90;;;24.50;99.90;;;;;;5041706;28;20236;-73
2022/06/20 12:08:51;;;;;;;14.13;5.82;;;24.60;99.90;;;;;;5025979;28;20228;-74
2022/06/20 12:11:50;;;;;;;10.40;5.45;;;24.40;99.90;;;;;;5043792;28;20219;-74
2022/06/20 12:14:51;;;;;;;10.80;5.93;;;24.40;99.90;;;;;;5040348;28;20232;-73
2022/06/20 12:17:48;;;;;;;12.05;5.38;;;24.60;99.90;;;;;;5028652;28;20230;-72
2022/06/20 12:23:51;;;;;;;9.30;5.63;;;23.60;99.90;;;;;;5046046;28;20220;-73
2022/06/20 12:26:40;;;;;;;9.13;5.10;;;23.60;99.90;;;;;;5033555;28;20225;-73
2022/06/20 12:29:36;;;;;;;9.82;5.22;;;23.50;99.90;;;;;;5037814;28;20320;-74
2022/06/20 12:32:30;;;;;;;8.13;5.07;;;23.30;99.90;;;;;;5040930;28;20225;-72
2022/06/20 12:35:25;;;;;;;11.93;5.05;;;23.40;99.90;;;;;;5021445;28;20222;-73
2022/06/20 12:38:22;;;;;;;14.35;5.40;;;23.30;99.90;;;;;;5038498;28;20228;-75
2022/06/20 12:41:15;;;;;;;7.75;4.55;;;23.30;99.90;;;;;;5036258;28;20223;-73
2022/06/20 12:44:30;;;;;;;12.93;5.05;;;23.30;99.90;;;;;;5032897;28;20224;-74
2022/06/20 12:47:41;;;;;;;13.77;5.40;;;23.40;99.90;;;;;;5030449;28;20221;-74
2022/06/20 12:50:39;;;;;;;12.68;5.68;;;23.50;99.90;;;;;;5031551;28;20303;-75
2022/06/20 12:53:50;;;;;;;14.13;5.88;;;23.30;99.90;;;;;;5016686;28;20299;-75
2022/06/20 12:56:53;;;;;;;25.75;8.45;;;23.00;99.90;;;;;;5035944;28;20228;-75
2022/06/20 13:00:13;;;;;;;14.48;8.88;;;21.70;99.90;;;;;;5016300;28;20230;-77
2022/06/20 13:03:31;;;;;;;19.92;11.05;;;20.50;99.90;;;;;;5015094;28;20218;-76
2022/06/20 13:07:03;;;;;;;17.52;11.88;;;20.30;99.90;;;;;;5012555;28;20225;-77
2022/06/20 13:10:30;;;;;;;20.13;11.77;;;20.40;99.90;;;;;;5018627;28;20237;-76
2022/06/20 13:13:53;;;;;;;14.30;10.35;;;20.50;99.90;;;;;;5012370;28;20222;-76
2022/06/20 13:16:49;;;;;;;16.65;8.80;;;20.40;99.90;;;;;;5002511;28;20221;-76
2022/06/20 13:19:55;;;;;;;14.77;8.13;;;20.10;99.90;;;;;;5013906;28;20245;-76
2022/06/20 13:22:50;;;;;;;11.00;7.50;;;20.00;99.90;;;;;;5002194;28;20318;-77
2022/06/20 13:25:46;;;;;;;13.23;8.30;;;19.80;99.90;;;;;;4999583;28;20221;-77
2022/06/20 13:28:43;;;;;;;16.15;8.45;;;19.80;99.90;;;;;;5015405;28;20279;-76
2022/06/20 13:31:39;;;;;;;12.82;8.57;;;19.70;99.90;;;;;;4997045;28;20221;-75
2022/06/20 13:34:43;;;;;;;18.00;9.85;;;20.10;99.90;;;;;;5000750;28;20222;-77
2022/06/20 13:37:52;;;;;;;14.00;8.88;;;20.30;99.90;;;;;;5019502;28;20261;-77
2022/06/20 13:40:49;;;;;;;16.98;8.27;;;20.40;99.90;;;;;;5015425;28;20222;-75
2022/06/20 13:43:51;;;;;;;12.45;8.50;;;20.40;99.90;;;;;;5016475;28;20222;-76
2022/06/20 13:46:49;;;;;;;13.05;8.00;;;20.30;99.90;;;;;;5008061;28;20222;-76
2022/06/20 13:49:44;;;;;;;13.45;8.02;;;20.50;99.90;;;;;;5008092;28;20221;-75
2022/06/20 13:52:39;;;;;;;11.15;8.20;;;20.50;99.90;;;;;;5010027;28;20226;-76
2022/06/20 13:55:35;;;;;;;10.23;8.15;;;20.40;99.90;;;;;;5015946;28;20235;-76
2022/06/20 13:58:34;;;;;;;18.75;9.32;;;20.40;99.90;;;;;;5008521;28;20260;-76
2022/06/20 14:01:32;;;;;;;12.40;9.63;;;20.70;99.90;;;;;;5001646;28;20250;-77
2022/06/20 14:04:22;;;;;;;13.55;9.30;;;20.90;99.90;;;;;;5009609;28;20222;-75
2022/06/20 14:07:11;;;;;;;13.15;9.30;;;20.80;99.90;;;;;;5021038;28;20213;-75
2022/06/20 14:10:00;;;;;;;11.00;7.97;;;21.10;99.90;;;;;;5002236;28;20232;-75
2022/06/20 14:12:53;;;;;;;13.73;9.30;;;21.00;99.90;;;;;;5008560;28;20274;-75
2022/06/20 14:15:42;;;;;;;15.02;8.45;;;21.00;99.90;;;;;;5018554;28;20683;-76
2022/06/20 14:18:35;;;;;;;12.50;8.30;;;21.00;99.90;;;;;;5021600;28;20229;-77
2022/06/20 14:21:33;;;;;;;13.32;8.52;;;20.80;99.90;;;;;;5018662;28;20716;-79
2022/06/20 14:24:25;;;;;;;11.07;7.72;;;20.80;99.90;;;;;;4995688;28;20224;-76
2022/06/20 14:27:18;;;;;;;12.60;8.75;;;20.50;99.90;;;;;;5011652;28;20233;-74
2022/06/20 14:30:21;;;;;;;25.38;10.52;;;20.70;99.90;;;;;;4998897;28;20225;-76
2022/06/20 15:46:46;;;;;;;13.02;10.15;;;20.60;99.90;;;;;;5016673;27;20601;-69
2022/06/20 15:49:43;;;;;;;13.48;9.95;;;20.60;99.90;;;;;;5016879;28;20217;-71
2022/06/20 19:07:07;;;;;;;20.30;15.23;;;20.70;99.90;;;;;;4945934;27;1520269;-69
2022/06/20 19:10:21;;;;;;;16.63;14.93;;;20.50;99.90;;;;;;5013472;28;20231;-70
2022/06/20 19:13:45;;;;;;;17.17;15.30;;;20.50;99.90;;;;;;5014816;28;20226;-70
2022/06/20 19:17:16;;;;;;;17.60;15.52;;;20.50;99.90;;;;;;5018325;28;20643;-70
2022/06/20 19:20:43;;;;;;;15.70;13.30;;;20.60;99.90;;;;;;4923049;28;20224;-71
2022/06/20 19:23:39;;;;;;;16.63;12.88;;;20.50;99.90;;;;;;5009957;28;20294;-72
2022/06/20 19:26:31;;;;;;;14.00;12.27;;;20.50;99.90;;;;;;5011096;28;20237;-71
2022/06/20 19:29:22;;;;;;;13.02;11.80;;;20.50;99.90;;;;;;5014769;28;20673;-70
2022/06/20 19:32:15;;;;;;;10.30;9.27;;;20.50;99.90;;;;;;5017862;28;20237;-71
2022/06/20 19:35:06;;;;;;;10.93;9.52;;;20.50;99.90;;;;;;5015838;28;20224;-70
2022/06/20 19:37:55;;;;;;;10.48;9.40;;;20.50;99.90;;;;;;5014486;28;20217;-70
2022/06/20 19:40:51;;;;;;;10.50;9.27;;;20.50;99.90;;;;;;5007222;28;20565;-71
2022/06/20 19:43:44;;;;;;;9.73;8.73;;;20.50;99.90;;;;;;5018865;28;20232;-69
2022/06/20 19:46:50;;;;;;;11.82;9.27;;;20.40;99.90;;;;;;5016513;28;20720;-70
2022/06/20 19:49:53;;;;;;;12.20;8.75;;;20.40;99.90;;;;;;5015886;28;20233;-70
2022/06/20 19:52:52;;;;;;;14.15;8.52;;;20.40;99.90;;;;;;5025090;28;20255;-70
2022/06/20 19:55:46;;;;;;;8.90;7.75;;;20.40;99.90;;;;;;5013604;28;20225;-70